الصفحة الرئيسية
METAR-TAF:

METAR-TAF

مطار :

أنتاناناريفو, مدغشقر

دائرة عرض: 18-48S, خط طول: 047-29E, ارتفاع: 1279 متر

مراقبة الطقس الحالي

تاريخ ووقت الإصدار 13 دقيقة قبل الساعة 03:30UTC
رياح هادئة
درجة الحرارة 19°درجة مئوية
الرطوبة 83%
ضغط 1015 hPa
الرؤية 10 كم أو أكثر
غيوم قليلة على ارتفاع 1700 قدم

METAR: FMMI 190330Z 00000KT 9999 FEW017 19/16 Q1015 NOSIG

زمن: 06:43 (03:43 UTC)

توقعات

تاريخ ووقت الإصدار 4ساعات و 43 دقيقة قبل الساعة 23:00UTC
التوقعات صالحة من19 الساعة 00 UTC إلى 20 الساعة 06 UTC
ريح 5 عقدة من الجنوب/الجنوب الشرقي
الرؤية 10 كم أو أكثر
غيوم متفرقة على ارتفاع 1700 قدم
غيوم متفرقة على ارتفاع 2000 قدم
أصبح
من 19 الساعة 04 UTC إلى 19 الساعة 09 UTC
ريح 11 عقدة من الغرب/الجنوب الغربي
نظرية الاحتمالات 40% :
مؤقت
من 19 الساعة 15 UTC إلى 19 الساعة 24 UTC
الرؤية: 4000 متر
زخات من المطر

TAF: FMMI 182300Z 1900/2006 16005KT 9999 SCT017 SCT020 BECMG 1904/1909 24011KT PROB40 TEMPO 1915/1924 4000 SHRA

أرصاد الطقس والتوقعات من أكثر من 4000 مطار (تقارير الطقس للمطار METAR والتنبؤ بالطقس بالمطارTAF).

المحطات المتاحة هي النقط الصفراء والحمراء على الخريطة.

حرك المؤشر فوق النقطة لمعرفة اسم المحطة.

ثم انقر لمعرفة أرصاد وتوقعات الطقس.

لتغيير الخارطة: اضغط على الأزرار الخضراء مع رمز الصليب الأسود للتكبير. على الزر الأخضر مع شرطة للتصغير، أو على الأسهم الخضراء للخرائط المجاورة.


METAR-TAF: